Time;durP1;ratioP1;P1;durP2;ratioP2;P2;SDS_P1;SDS_P2;PMS_P1;PMS_P2;Temp;Humidity;BMP_temperature;BMP_pressure;BME280_temperature;BME280_humidity;BME280_pressure;Samples;Min_cycle;Max_cycle;Signal;HPM_P1;HPM_P2
2023/03/03 00:01:41;0.00;0.00;0.62;0.00;0.00;0.62;1.50;0.90;;;21.30;21.10;;;;;;2267946;61;20448;-65
2023/03/03 00:04:27;0.00;0.00;0.62;0.00;0.00;0.62;1.80;1.07;;;21.30;21.10;;;;;;2268325;61;20445;-65
2023/03/03 00:07:14;0.00;0.00;0.62;0.00;0.00;0.62;1.40;1.00;;;21.30;21.10;;;;;;2267482;61;20371;-66
2023/03/03 00:09:59;0.00;0.00;0.62;0.00;0.00;0.62;1.73;1.47;;;21.30;21.10;;;;;;2264896;61;20391;-64
2023/03/03 00:12:47;0.00;0.00;0.62;0.00;0.00;0.62;1.50;0.90;;;21.30;21.10;;;;;;2268312;61;20355;-65
2023/03/03 00:15:32;0.00;0.00;0.62;0.00;0.00;0.62;1.50;0.90;;;21.30;21.10;;;;;;2264568;61;20402;-65
2023/03/03 00:18:26;0.00;0.00;0.62;0.00;0.00;0.62;1.60;1.00;;;21.30;21.10;;;;;;2268100;61;20358;-66
2023/03/03 00:21:32;0.00;0.00;0.62;0.00;0.00;0.62;1.67;1.20;;;21.30;21.10;;;;;;2264671;61;20395;-69
2023/03/03 00:24:21;0.00;0.00;0.62;0.00;0.00;0.62;1.40;0.90;;;21.30;21.10;;;;;;2268391;61;20387;-66
2023/03/03 00:27:22;0.00;0.00;0.62;0.00;0.00;0.62;1.50;0.90;;;21.30;21.10;;;;;;2268364;61;20367;-65
2023/03/03 00:30:18;0.00;0.00;0.62;0.00;0.00;0.62;1.70;1.07;;;21.30;21.20;;;;;;2267379;61;20445;-64
2023/03/03 00:33:18;0.00;0.00;0.62;0.00;0.00;0.62;1.40;0.90;;;21.30;21.20;;;;;;2268079;61;20464;-65
2023/03/03 00:36:30;0.00;0.00;0.62;0.00;0.00;0.62;1.90;1.00;;;21.20;21.10;;;;;;2264817;61;20355;-64
2023/03/03 00:39:28;0.00;0.00;0.62;0.00;0.00;0.62;1.77;1.03;;;21.20;21.10;;;;;;2267826;61;20367;-66
2023/03/03 00:42:15;0.00;0.00;0.62;0.00;0.00;0.62;1.37;0.90;;;21.20;21.10;;;;;;2268427;61;20510;-66
2023/03/03 00:45:00;0.00;0.00;0.62;0.00;0.00;0.62;1.60;0.83;;;21.20;21.10;;;;;;2264439;61;20382;-66
2023/03/03 00:47:45;0.00;0.00;0.62;0.00;0.00;0.62;1.53;1.00;;;21.20;21.70;;;;;;2264859;61;20355;-66
2023/03/03 00:50:33;0.00;0.00;0.62;0.00;0.00;0.62;1.70;1.10;;;21.20;21.10;;;;;;2268109;61;20355;-66
2023/03/03 00:53:20;0.00;0.00;0.62;0.00;0.00;0.62;1.40;0.90;;;21.20;21.10;;;;;;2267665;61;20907;-66
2023/03/03 00:56:06;0.00;0.00;0.62;0.00;0.00;0.62;1.87;1.20;;;21.20;21.10;;;;;;2265199;61;20396;-65
2023/03/03 00:58:51;0.00;0.00;0.62;0.00;0.00;0.62;1.50;0.90;;;21.20;21.10;;;;;;2267193;61;21015;-65
2023/03/03 01:01:39;0.00;0.00;0.62;0.00;0.00;0.62;1.70;1.00;;;21.20;21.10;;;;;;2264742;61;20383;-66
2023/03/03 01:04:23;0.00;0.00;0.62;0.00;0.00;0.62;1.40;0.80;;;21.20;21.10;;;;;;2267956;61;20482;-64
2023/03/03 01:07:08;0.00;0.00;0.62;0.00;0.00;0.62;1.50;1.00;;;21.20;21.10;;;;;;2267280;61;20439;-65
2023/03/03 01:09:53;0.00;0.00;0.62;0.00;0.00;0.62;1.50;0.90;;;21.20;21.10;;;;;;2267812;61;20880;-65
2023/03/03 01:12:40;0.00;0.00;0.62;0.00;0.00;0.62;1.50;1.00;;;21.20;21.10;;;;;;2264998;61;20385;-65
2023/03/03 01:15:25;0.00;0.00;0.62;0.00;0.00;0.62;1.67;0.90;;;21.20;21.10;;;;;;2267694;61;20497;-65
2023/03/03 01:18:11;0.00;0.00;0.62;0.00;0.00;0.62;1.60;1.00;;;21.20;21.10;;;;;;2265191;61;20402;-65
2023/03/03 01:20:55;0.00;0.00;0.62;0.00;0.00;0.62;1.67;0.90;;;21.20;21.10;;;;;;2266953;61;20379;-65
2023/03/03 01:23:40;0.00;0.00;0.62;0.00;0.00;0.62;1.63;1.07;;;21.20;21.10;;;;;;2268169;61;20379;-65
2023/03/03 01:26:25;0.00;0.00;0.62;0.00;0.00;0.62;1.30;0.90;;;21.20;21.10;;;;;;2262287;61;20803;-65
2023/03/03 01:29:11;0.00;0.00;0.62;0.00;0.00;0.62;1.60;1.00;;;21.20;21.20;;;;;;2267002;61;20363;-65
2023/03/03 01:31:56;0.00;0.00;0.62;0.00;0.00;0.62;1.57;0.90;;;21.20;21.10;;;;;;2265032;61;20393;-65
2023/03/03 01:34:41;0.00;0.00;0.62;0.00;0.00;0.62;1.60;0.87;;;21.20;21.10;;;;;;2264963;61;20405;-66
2023/03/03 01:37:25;0.00;0.00;0.62;0.00;0.00;0.62;1.70;0.97;;;21.20;21.10;;;;;;2267367;61;20363;-67
2023/03/03 01:40:16;0.00;0.00;0.62;0.00;0.00;0.62;1.47;1.13;;;21.10;21.10;;;;;;2267910;61;20379;-65
2023/03/03 01:43:01;0.00;0.00;0.62;0.00;0.00;0.62;1.50;0.87;;;21.20;21.20;;;;;;2267605;61;20461;-63
2023/03/03 01:46:32;0.00;0.00;0.62;0.00;0.00;0.62;1.50;0.97;;;21.10;21.10;;;;;;2268112;61;20367;-65
2023/03/03 01:49:23;0.00;0.00;0.62;0.00;0.00;0.62;1.60;0.97;;;21.10;21.10;;;;;;2267836;61;20371;-65
2023/03/03 01:52:15;0.00;0.00;0.62;0.00;0.00;0.62;1.50;0.90;;;21.10;21.10;;;;;;2264264;61;20398;-65
2023/03/03 01:55:03;0.00;0.00;0.62;0.00;0.00;0.62;1.70;1.10;;;21.10;21.10;;;;;;2268062;61;20749;-66
2023/03/03 01:57:55;0.00;0.00;0.62;0.00;0.00;0.62;1.80;1.07;;;21.10;21.10;;;;;;2267502;61;20371;-64
2023/03/03 02:00:44;0.00;0.00;0.62;0.00;0.00;0.62;1.43;0.90;;;21.10;21.10;;;;;;2267623;61;20406;-65
2023/03/03 02:03:32;0.00;0.00;0.62;0.00;0.00;0.62;1.80;1.03;;;21.10;21.10;;;;;;2264711;61;20394;-65
2023/03/03 02:06:21;0.00;0.00;0.62;0.00;0.00;0.62;1.60;0.90;;;21.10;21.10;;;;;;2267238;61;20363;-65
2023/03/03 02:09:14;0.00;0.00;0.62;0.00;0.00;0.62;1.43;0.80;;;21.10;21.10;;;;;;2267990;61;20807;-65
2023/03/03 02:12:07;0.00;0.00;0.62;0.00;0.00;0.62;1.70;1.00;;;21.10;21.10;;;;;;2267834;61;20352;-63
2023/03/03 02:14:51;0.00;0.00;0.62;0.00;0.00;0.62;2.30;1.30;;;21.10;21.10;;;;;;2268381;61;20378;-65
2023/03/03 02:17:36;0.00;0.00;0.62;0.00;0.00;0.62;1.60;1.07;;;21.10;21.10;;;;;;2265573;61;20355;-66
2023/03/03 02:20:48;0.00;0.00;0.62;0.00;0.00;0.62;1.30;0.73;;;21.10;21.10;;;;;;2267535;61;20792;-66
2023/03/03 02:23:41;0.00;0.00;0.62;0.00;0.00;0.62;1.60;0.90;;;21.10;21.10;;;;;;2264930;61;20907;-65
2023/03/03 02:26:30;0.00;0.00;0.62;0.00;0.00;0.62;1.80;1.00;;;21.00;21.20;;;;;;2262854;61;20922;-65
2023/03/03 02:29:19;0.00;0.00;0.62;0.00;0.00;0.62;1.70;1.00;;;21.10;21.10;;;;;;2264877;61;20366;-65
2023/03/03 02:32:05;0.00;0.00;0.62;0.00;0.00;0.62;1.80;1.10;;;21.10;21.00;;;;;;2265661;61;20395;-65
2023/03/03 02:34:51;0.00;0.00;0.62;0.00;0.00;0.62;1.50;1.00;;;21.10;21.00;;;;;;2268298;61;20758;-63
2023/03/03 02:37:36;0.00;0.00;0.62;0.00;0.00;0.62;1.90;0.97;;;21.10;21.10;;;;;;2268838;61;20834;-65
2023/03/03 02:40:24;0.00;0.00;0.62;0.00;0.00;0.62;1.50;0.93;;;21.10;21.10;;;;;;2265086;61;20418;-65
2023/03/03 02:43:11;0.00;0.00;0.62;0.00;0.00;0.62;1.80;0.90;;;21.10;21.10;;;;;;2267922;61;20773;-64
2023/03/03 02:45:56;0.00;0.00;0.62;0.00;0.00;0.62;1.40;0.80;;;21.10;21.10;;;;;;2268998;61;20363;-64
2023/03/03 02:48:43;0.00;0.00;0.62;0.00;0.00;0.62;1.60;0.90;;;21.10;21.10;;;;;;2268593;61;20390;-65
2023/03/03 02:51:27;0.00;0.00;0.62;0.00;0.00;0.62;2.10;1.23;;;21.00;21.00;;;;;;2268373;61;20355;-69
2023/03/03 02:54:14;0.00;0.00;0.62;0.00;0.00;0.62;1.50;1.10;;;21.00;21.00;;;;;;2268525;61;20463;-66
2023/03/03 02:57:00;0.00;0.00;0.62;0.00;0.00;0.62;1.40;1.00;;;21.00;21.00;;;;;;2268476;61;20446;-65
2023/03/03 02:59:46;0.00;0.00;0.62;0.00;0.00;0.62;1.73;0.80;;;21.00;21.10;;;;;;2265169;61;20359;-66
2023/03/03 03:02:34;0.00;0.00;0.62;0.00;0.00;0.62;1.40;0.90;;;21.00;21.10;;;;;;2265212;61;20379;-65
2023/03/03 03:05:20;0.00;0.00;0.62;0.00;0.00;0.62;1.43;0.90;;;21.00;21.10;;;;;;2267814;61;20816;-65
2023/03/03 03:08:05;0.00;0.00;0.62;0.00;0.00;0.62;1.57;0.93;;;21.00;21.60;;;;;;2268661;61;20363;-64
2023/03/03 03:10:50;0.00;0.00;0.62;0.00;0.00;0.62;1.50;1.00;;;21.00;21.10;;;;;;2265337;61;20406;-66
2023/03/03 03:13:35;0.00;0.00;0.62;0.00;0.00;0.62;1.90;1.00;;;21.00;21.10;;;;;;2264464;61;20414;-66
2023/03/03 03:16:21;0.00;0.00;0.62;0.00;0.00;0.62;1.63;0.97;;;21.00;21.10;;;;;;2265624;61;20950;-65
2023/03/03 03:19:07;0.00;0.00;0.62;0.00;0.00;0.62;1.37;0.80;;;21.00;21.10;;;;;;2267984;61;20367;-65
2023/03/03 03:21:53;0.00;0.00;0.62;0.00;0.00;0.62;1.50;1.00;;;21.00;21.10;;;;;;2265022;61;20485;-64
2023/03/03 03:24:39;0.00;0.00;0.62;0.00;0.00;0.62;1.50;0.80;;;21.00;21.20;;;;;;2265034;61;20777;-64
2023/03/03 03:27:26;0.00;0.00;0.62;0.00;0.00;0.62;1.83;1.30;;;21.00;21.10;;;;;;2264342;61;20394;-63
2023/03/03 03:30:13;0.00;0.00;0.62;0.00;0.00;0.62;1.50;0.90;;;21.00;21.10;;;;;;2264900;61;20767;-66
2023/03/03 03:33:00;0.00;0.00;0.62;0.00;0.00;0.62;1.37;0.90;;;21.00;21.10;;;;;;2288776;39;20446;-64
2023/03/03 03:35:46;0.00;0.00;0.62;0.00;0.00;0.62;1.60;1.00;;;21.00;21.10;;;;;;2268415;61;20408;-64
2023/03/03 03:38:35;0.00;0.00;0.62;0.00;0.00;0.62;1.50;0.80;;;21.00;21.10;;;;;;2272223;61;20373;-65
2023/03/03 03:41:21;0.00;0.00;0.62;0.00;0.00;0.62;1.73;1.00;;;21.00;21.10;;;;;;2271792;61;20464;-64
2023/03/03 03:44:06;0.00;0.00;0.62;0.00;0.00;0.62;1.70;1.10;;;21.00;21.10;;;;;;2272513;61;20382;-63
2023/03/03 03:46:51;0.00;0.00;0.62;0.00;0.00;0.62;1.70;1.00;;;21.00;21.10;;;;;;2269488;61;20409;-63
2023/03/03 03:49:37;0.00;0.00;0.62;0.00;0.00;0.62;1.60;0.93;;;20.90;21.00;;;;;;2268209;61;20393;-64
2023/03/03 03:52:23;0.00;0.00;0.62;0.00;0.00;0.62;1.40;0.90;;;20.90;21.00;;;;;;2269362;61;20358;-64
2023/03/03 03:55:09;0.00;0.00;0.62;0.00;0.00;0.62;1.53;0.73;;;20.90;21.00;;;;;;2272482;61;20408;-68
2023/03/03 03:57:55;0.00;0.00;0.62;0.00;0.00;0.62;1.97;1.03;;;20.90;21.00;;;;;;2268765;61;20353;-66
2023/03/03 04:00:41;0.00;0.00;0.62;0.00;0.00;0.62;1.40;0.90;;;20.90;21.00;;;;;;2269136;61;20509;-65
2023/03/03 04:03:26;0.00;0.00;0.62;0.00;0.00;0.62;1.50;0.90;;;20.90;21.00;;;;;;2271297;61;20381;-65
2023/03/03 04:06:12;0.00;0.00;0.62;0.00;0.00;0.62;1.60;0.90;;;20.90;21.00;;;;;;2269296;61;20401;-63
2023/03/03 04:08:57;0.00;0.00;0.62;0.00;0.00;0.62;1.57;1.00;;;20.90;21.00;;;;;;2269071;61;20359;-68
2023/03/03 04:11:43;0.00;0.00;0.62;0.00;0.00;0.62;1.63;1.00;;;20.90;21.00;;;;;;2268479;61;20416;-63
2023/03/03 04:14:29;0.00;0.00;0.62;0.00;0.00;0.62;1.53;0.90;;;20.90;21.00;;;;;;2269329;61;20587;-64
2023/03/03 04:17:16;0.00;0.00;0.62;0.00;0.00;0.62;2.30;1.07;;;20.90;21.10;;;;;;2269129;61;20825;-64
2023/03/03 04:20:02;0.00;0.00;0.62;0.00;0.00;0.62;1.80;1.10;;;20.90;21.10;;;;;;2271265;61;20389;-66
2023/03/03 04:22:49;0.00;0.00;0.62;0.00;0.00;0.62;1.50;0.90;;;20.90;21.10;;;;;;2269442;61;20782;-64
2023/03/03 04:25:34;0.00;0.00;0.62;0.00;0.00;0.62;2.20;1.13;;;20.90;21.10;;;;;;2268800;61;20381;-64
2023/03/03 04:28:21;0.00;0.00;0.62;0.00;0.00;0.62;1.77;1.00;;;20.90;21.00;;;;;;2272496;61;20366;-64
2023/03/03 04:31:06;0.00;0.00;0.62;0.00;0.00;0.62;1.60;0.93;;;20.90;21.00;;;;;;2268855;61;20379;-64
2023/03/03 04:33:52;0.00;0.00;0.62;0.00;0.00;0.62;1.93;1.17;;;20.90;21.10;;;;;;2268200;61;20918;-67
2023/03/03 04:36:38;0.00;0.00;0.62;0.00;0.00;0.62;1.60;1.10;;;20.90;21.10;;;;;;2271708;61;20804;-64
2023/03/03 04:39:26;0.00;0.00;0.62;0.00;0.00;0.62;1.50;1.20;;;20.80;21.00;;;;;;2268733;61;20420;-64
2023/03/03 04:42:11;0.00;0.00;0.62;0.00;0.00;0.62;1.60;0.90;;;20.80;21.00;;;;;;2268334;61;20386;-67
2023/03/03 04:44:56;0.00;0.00;0.62;0.00;0.00;0.62;1.77;1.07;;;20.80;21.00;;;;;;2269150;61;20408;-64
2023/03/03 04:47:41;0.00;0.00;0.62;0.00;0.00;0.62;1.30;0.80;;;20.80;21.00;;;;;;2268865;61;21329;-65
2023/03/03 04:50:26;0.00;0.00;0.62;0.00;0.00;0.62;1.77;0.90;;;20.80;21.00;;;;;;2271599;61;20748;-64
2023/03/03 04:53:11;0.00;0.00;0.62;0.00;0.00;0.62;1.50;0.90;;;20.80;21.00;;;;;;2268933;61;20466;-66
2023/03/03 04:56:00;0.00;0.00;0.62;0.00;0.00;0.62;1.57;0.90;;;20.80;21.00;;;;;;2268452;61;20359;-64
2023/03/03 04:58:45;0.00;0.00;0.62;0.00;0.00;0.62;1.93;1.30;;;20.80;21.00;;;;;;2272301;61;20405;-64
2023/03/03 05:01:30;0.00;0.00;0.62;0.00;0.00;0.62;1.50;1.00;;;20.80;21.00;;;;;;2269125;61;20405;-65
2023/03/03 05:04:15;0.00;0.00;0.62;0.00;0.00;0.62;1.60;0.90;;;20.80;21.00;;;;;;2271252;61;20382;-64
2023/03/03 05:07:00;0.00;0.00;0.62;0.00;0.00;0.62;1.90;1.20;;;20.80;21.00;;;;;;2272290;61;20396;-64
2023/03/03 05:09:45;0.00;0.00;0.62;0.00;0.00;0.62;1.70;1.00;;;20.80;21.00;;;;;;2271636;61;20437;-64
2023/03/03 05:12:31;0.00;0.00;0.62;0.00;0.00;0.62;1.80;1.10;;;20.80;21.10;;;;;;2271978;61;20281;-65
2023/03/03 05:15:16;0.00;0.00;0.62;0.00;0.00;0.62;1.63;1.00;;;20.80;21.00;;;;;;2272044;61;20428;-64
2023/03/03 05:18:01;0.00;0.00;0.62;0.00;0.00;0.62;1.50;0.93;;;20.80;20.90;;;;;;2271704;61;20437;-62
2023/03/03 05:20:46;0.00;0.00;0.62;0.00;0.00;0.62;1.83;1.10;;;20.80;20.90;;;;;;2271754;61;20923;-64
2023/03/03 05:23:32;0.00;0.00;0.62;0.00;0.00;0.62;1.77;1.07;;;20.80;21.00;;;;;;2272274;61;20386;-66
2023/03/03 05:26:17;0.00;0.00;0.62;0.00;0.00;0.62;1.50;0.80;;;20.80;20.90;;;;;;2271592;61;20369;-64
2023/03/03 05:29:03;0.00;0.00;0.62;0.00;0.00;0.62;1.63;0.93;;;20.80;21.00;;;;;;2271761;61;20362;-68
2023/03/03 05:31:48;0.00;0.00;0.62;0.00;0.00;0.62;1.77;1.13;;;20.80;21.00;;;;;;2271692;61;20394;-63
2023/03/03 05:34:33;0.00;0.00;0.62;0.00;0.00;0.62;1.77;1.03;;;20.80;21.00;;;;;;2271705;61;20490;-65
2023/03/03 05:37:18;0.00;0.00;0.62;0.00;0.00;0.62;1.93;1.20;;;20.80;21.00;;;;;;2272129;61;20496;-66
2023/03/03 05:40:04;0.00;0.00;0.62;0.00;0.00;0.62;1.77;1.10;;;20.80;21.00;;;;;;2271312;61;20443;-63
2023/03/03 05:42:49;0.00;0.00;0.62;0.00;0.00;0.62;1.70;1.10;;;20.80;21.00;;;;;;2272310;61;20780;-64
2023/03/03 05:45:35;0.00;0.00;0.62;0.00;0.00;0.62;1.90;1.10;;;20.80;21.00;;;;;;2272172;61;20817;-66
2023/03/03 05:48:20;0.00;0.00;0.62;0.00;0.00;0.62;1.50;0.90;;;20.80;21.00;;;;;;2271404;61;20355;-64
2023/03/03 05:51:05;0.00;0.00;0.62;0.00;0.00;0.62;1.50;0.97;;;20.80;21.00;;;;;;2271850;61;20357;-64
2023/03/03 05:53:49;0.00;0.00;0.62;0.00;0.00;0.62;2.47;1.00;;;20.80;21.00;;;;;;2271872;61;20478;-65
2023/03/03 05:56:34;0.00;0.00;0.62;0.00;0.00;0.62;1.60;0.80;;;20.80;21.00;;;;;;2271590;61;20354;-65
2023/03/03 05:59:19;0.00;0.00;0.62;0.00;0.00;0.62;1.70;1.00;;;20.80;21.00;;;;;;2271745;61;20405;-65
2023/03/03 06:02:05;0.00;0.00;0.62;0.00;0.00;0.62;1.80;1.13;;;20.80;21.50;;;;;;2271540;61;20475;-66
2023/03/03 06:04:50;0.00;0.00;0.62;0.00;0.00;0.62;1.67;1.07;;;20.70;21.00;;;;;;2268692;61;20374;-66
2023/03/03 06:07:35;0.00;0.00;0.62;0.00;0.00;0.62;1.60;1.00;;;20.70;21.00;;;;;;2268895;61;20803;-66
2023/03/03 06:10:19;0.00;0.00;0.62;0.00;0.00;0.62;1.50;0.90;;;20.80;21.10;;;;;;2271152;61;20364;-65
2023/03/03 06:13:09;0.00;0.00;0.62;0.00;0.00;0.62;2.33;1.23;;;20.70;21.00;;;;;;2268971;61;20470;-65
2023/03/03 06:15:53;0.00;0.00;0.62;0.00;0.00;0.62;1.63;1.07;;;20.70;21.00;;;;;;2272393;61;20984;-66
2023/03/03 06:18:39;0.00;0.00;0.62;0.00;0.00;0.62;1.70;1.10;;;20.80;21.00;;;;;;2271491;61;20357;-64
2023/03/03 06:21:24;0.00;0.00;0.62;0.00;0.00;0.62;1.90;1.10;;;20.70;21.00;;;;;;2271888;61;20801;-66
2023/03/03 06:24:08;0.00;0.00;0.62;0.00;0.00;0.62;1.57;0.90;;;20.70;21.00;;;;;;2268506;61;20897;-65
2023/03/03 06:26:53;0.00;0.00;0.62;0.00;0.00;0.62;2.17;1.37;;;20.70;21.00;;;;;;2272353;61;21004;-65
2023/03/03 06:29:38;0.00;0.00;0.62;0.00;0.00;0.62;1.77;1.00;;;20.70;21.00;;;;;;2272105;61;20408;-68
2023/03/03 06:32:23;0.00;0.00;0.62;0.00;0.00;0.62;1.70;0.90;;;20.70;21.00;;;;;;2271439;61;20455;-66
2023/03/03 06:35:09;0.00;0.00;0.62;0.00;0.00;0.62;1.60;1.00;;;20.70;21.00;;;;;;2272117;61;20409;-65
2023/03/03 06:37:54;0.00;0.00;0.62;0.00;0.00;0.62;1.70;0.97;;;20.70;21.00;;;;;;2271964;61;20384;-65
2023/03/03 06:40:39;0.00;0.00;0.62;0.00;0.00;0.62;1.50;0.90;;;20.70;21.00;;;;;;2270997;61;20382;-66
2023/03/03 06:43:23;0.00;0.00;0.62;0.00;0.00;0.62;1.80;1.20;;;20.70;21.00;;;;;;2271475;61;20382;-67
2023/03/03 06:46:08;0.00;0.00;0.62;0.00;0.00;0.62;1.80;1.20;;;20.70;21.00;;;;;;2268424;61;20420;-65
2023/03/03 06:48:53;0.00;0.00;0.62;0.00;0.00;0.62;1.70;1.10;;;20.70;21.00;;;;;;2271492;61;21062;-64
2023/03/03 06:51:40;0.00;0.00;0.62;0.00;0.00;0.62;1.40;0.90;;;20.70;21.00;;;;;;2272027;61;20358;-65
2023/03/03 06:54:28;0.00;0.00;0.62;0.00;0.00;0.62;1.60;0.90;;;20.70;21.00;;;;;;2271087;61;20417;-68
2023/03/03 06:57:25;0.00;0.00;0.62;0.00;0.00;0.62;1.63;1.10;;;20.70;21.00;;;;;;2272241;61;20420;-65
2023/03/03 07:00:19;0.00;0.00;0.62;0.00;0.00;0.62;1.50;0.80;;;20.70;21.00;;;;;;2272003;60;20366;-65
2023/03/03 07:03:12;0.00;0.00;0.62;0.00;0.00;0.62;1.40;0.90;;;20.70;21.00;;;;;;2272161;61;20377;-65
2023/03/03 07:05:56;0.00;0.00;0.62;0.00;0.00;0.62;1.70;1.00;;;20.70;21.00;;;;;;2272686;61;20379;-64
2023/03/03 07:08:42;0.00;0.00;0.62;0.00;0.00;0.62;1.67;1.00;;;20.70;21.00;;;;;;2272156;61;20447;-64
2023/03/03 07:11:27;0.00;0.00;0.62;0.00;0.00;0.62;2.03;1.20;;;20.70;21.00;;;;;;2272307;61;20461;-64
2023/03/03 07:14:17;0.00;0.00;0.62;0.00;0.00;0.62;2.20;1.10;;;20.60;20.90;;;;;;2272790;61;20382;-60
2023/03/03 07:17:06;0.00;0.00;0.62;0.00;0.00;0.62;1.47;0.90;;;20.60;20.90;;;;;;2268796;61;20355;-60
2023/03/03 07:19:51;0.00;0.00;0.62;0.00;0.00;0.62;2.03;1.20;;;20.60;20.90;;;;;;2272579;61;20362;-62
2023/03/03 07:22:36;0.00;0.00;0.62;0.00;0.00;0.62;1.80;1.00;;;20.70;21.00;;;;;;2269766;61;20442;-65
2023/03/03 07:25:31;0.00;0.00;0.62;0.00;0.00;0.62;1.87;1.10;;;20.70;21.00;;;;;;2268902;61;20366;-62
2023/03/03 07:28:25;0.00;0.00;0.62;0.00;0.00;0.62;1.50;0.93;;;20.60;20.90;;;;;;2272770;61;20362;-62
2023/03/03 07:31:27;0.00;0.00;0.62;0.00;0.00;0.62;1.90;1.30;;;20.60;20.90;;;;;;2271825;61;20350;-62
2023/03/03 07:34:20;0.00;0.00;0.62;0.00;0.00;0.62;1.50;1.00;;;20.60;21.00;;;;;;2272786;61;20427;-62
2023/03/03 07:37:20;0.00;0.00;0.62;0.00;0.00;0.62;1.70;1.07;;;20.60;20.90;;;;;;2272850;61;20404;-58
2023/03/03 07:40:30;0.00;0.00;0.62;0.00;0.00;0.62;1.83;1.10;;;20.60;21.00;;;;;;2271920;61;20488;-62
2023/03/03 07:43:35;0.00;0.00;0.62;0.00;0.00;0.62;1.70;1.20;;;20.60;20.90;;;;;;2272809;61;20386;-60
2023/03/03 07:46:29;0.00;0.00;0.62;0.00;0.00;0.62;2.33;1.17;;;20.60;21.50;;;;;;2272016;61;20397;-64
2023/03/03 07:49:22;0.00;0.00;0.62;0.00;0.00;0.62;1.57;1.20;;;20.60;20.90;;;;;;2272325;61;20350;-62
2023/03/03 07:52:24;0.00;0.00;0.62;0.00;0.00;0.62;1.80;1.00;;;20.60;20.90;;;;;;2269285;61;20365;-64
2023/03/03 07:55:32;0.00;0.00;0.62;0.00;0.00;0.62;1.47;0.97;;;20.60;21.10;;;;;;2272381;61;20361;-63
2023/03/03 07:58:36;0.00;0.00;0.62;0.00;0.00;0.62;1.50;0.90;;;20.70;21.00;;;;;;2272804;61;20431;-64
2023/03/03 08:01:41;0.00;0.00;0.62;0.00;0.00;0.62;2.07;1.17;;;20.70;21.00;;;;;;2271730;61;20428;-60
2023/03/03 08:04:37;0.00;0.00;0.62;0.00;0.00;0.62;1.30;0.80;;;20.60;20.90;;;;;;2272585;61;20373;-62
2023/03/03 08:07:22;0.00;0.00;0.62;0.00;0.00;0.62;1.40;0.80;;;20.60;20.90;;;;;;2272270;61;20351;-61
2023/03/03 08:10:36;0.00;0.00;0.62;0.00;0.00;0.62;2.07;1.30;;;20.60;20.90;;;;;;2271952;61;20397;-62
2023/03/03 08:13:26;0.00;0.00;0.62;0.00;0.00;0.62;1.77;1.20;;;20.60;20.90;;;;;;2272522;61;20390;-61
2023/03/03 08:16:34;0.00;0.00;0.62;0.00;0.00;0.62;1.67;1.00;;;20.70;21.00;;;;;;2272079;61;20365;-59
2023/03/03 08:19:19;0.00;0.00;0.62;0.00;0.00;0.62;1.90;1.40;;;20.60;21.00;;;;;;2272436;61;20447;-63
2023/03/03 08:22:13;0.00;0.00;0.62;0.00;0.00;0.62;1.73;1.30;;;20.60;20.90;;;;;;2269061;61;20478;-65
2023/03/03 08:24:58;0.00;0.00;0.62;0.00;0.00;0.62;1.97;1.40;;;20.60;20.90;;;;;;2272194;61;20400;-60
2023/03/03 08:27:44;0.00;0.00;0.62;0.00;0.00;0.62;1.87;1.20;;;20.60;20.90;;;;;;2272571;61;20350;-62
2023/03/03 08:30:30;0.00;0.00;0.62;0.00;0.00;0.62;1.90;1.17;;;20.60;21.00;;;;;;2271736;61;20878;-61
2023/03/03 08:33:16;0.00;0.00;0.62;0.00;0.00;0.62;1.90;1.27;;;20.60;20.90;;;;;;2272292;61;20385;-62
2023/03/03 08:36:01;0.00;0.00;0.62;0.00;0.00;0.62;1.83;1.07;;;20.60;20.90;;;;;;2272725;61;20432;-64
2023/03/03 08:38:46;0.00;0.00;0.62;0.00;0.00;0.62;1.60;1.00;;;20.60;20.90;;;;;;2271667;61;20344;-62
2023/03/03 08:41:30;0.00;0.00;0.62;0.00;0.00;0.62;1.90;1.20;;;20.60;21.00;;;;;;2272614;61;20858;-60
2023/03/03 08:44:16;0.00;0.00;0.62;0.00;0.00;0.62;2.63;1.30;;;20.60;20.90;;;;;;2272326;61;20513;-63
2023/03/03 08:47:01;0.00;0.00;0.62;0.00;0.00;0.62;2.33;1.60;;;20.60;21.00;;;;;;2272201;61;21158;-61
2023/03/03 08:49:45;0.00;0.00;0.62;0.00;0.00;0.62;2.47;1.33;;;20.60;21.00;;;;;;2272336;61;20366;-62
2023/03/03 08:52:30;0.00;0.00;0.62;0.00;0.00;0.62;2.00;1.30;;;20.60;21.00;;;;;;2271593;61;20359;-63
2023/03/03 08:55:15;0.00;0.00;0.62;0.00;0.00;0.62;2.50;1.83;;;20.60;20.90;;;;;;2272393;61;20404;-62
2023/03/03 08:57:59;0.00;0.00;0.62;0.00;0.00;0.62;2.37;1.30;;;20.60;21.00;;;;;;2272510;61;20474;-60
2023/03/03 09:00:45;0.00;0.00;0.62;0.00;0.00;0.62;2.10;1.60;;;20.60;21.00;;;;;;2271207;61;20419;-62
2023/03/03 09:03:30;0.00;0.00;0.62;0.00;0.00;0.62;2.17;1.47;;;20.60;21.00;;;;;;2272053;61;20447;-60
2023/03/03 09:06:15;0.00;0.00;0.62;0.00;0.00;0.62;2.37;1.50;;;20.60;21.00;;;;;;2272473;61;20390;-61
2023/03/03 09:09:00;0.00;0.00;0.62;0.00;0.00;0.62;1.90;1.37;;;20.60;21.00;;;;;;2271890;61;20928;-66
2023/03/03 09:11:46;0.00;0.00;0.62;0.00;0.00;0.62;2.10;1.23;;;20.60;21.00;;;;;;2272594;61;20354;-63
2023/03/03 09:17:37;0.00;0.00;0.62;0.00;0.00;0.62;2.17;1.57;;;20.60;21.00;;;;;;2273706;61;20459;-61
2023/03/03 09:20:32;0.00;0.00;0.62;0.00;0.00;0.62;1.90;1.40;;;20.60;21.00;;;;;;2272079;61;20358;-65
2023/03/03 09:23:36;0.00;0.00;0.62;0.00;0.00;0.62;2.60;1.87;;;20.60;21.00;;;;;;2271568;60;20382;-64
2023/03/03 09:26:30;0.00;0.00;0.62;0.00;0.00;0.62;2.43;1.37;;;20.60;21.00;;;;;;2272358;61;20366;-63
2023/03/03 09:29:24;0.00;0.00;0.62;0.00;0.00;0.62;2.40;1.80;;;20.60;21.00;;;;;;2271551;61;20354;-66
2023/03/03 09:32:27;0.00;0.00;0.62;0.00;0.00;0.62;2.30;1.60;;;20.60;21.00;;;;;;2272471;61;21008;-58
2023/03/03 09:35:36;0.00;0.00;0.62;0.00;0.00;0.62;2.43;1.60;;;20.60;21.00;;;;;;2272249;61;20372;-63
2023/03/03 09:38:28;0.00;0.00;0.62;0.00;0.00;0.62;2.40;1.92;;;20.60;21.00;;;;;;2268568;61;20430;-62
2023/03/03 09:41:46;0.00;0.00;0.62;0.00;0.00;0.62;2.10;1.80;;;20.60;21.00;;;;;;2272172;61;20271;-62
2023/03/03 09:44:58;0.00;0.00;0.62;0.00;0.00;0.62;2.00;1.37;;;20.60;21.00;;;;;;2271481;61;20918;-60
2023/03/03 09:47:55;0.00;0.00;0.62;0.00;0.00;0.62;2.90;2.03;;;20.60;21.00;;;;;;2272309;61;20401;-62
2023/03/03 09:50:53;0.00;0.00;0.62;0.00;0.00;0.62;2.27;1.90;;;20.60;21.00;;;;;;2272014;61;20450;-60
2023/03/03 09:54:04;0.00;0.00;0.62;0.00;0.00;0.62;2.40;1.90;;;20.60;21.00;;;;;;2272081;61;20402;-62
2023/03/03 09:56:58;0.00;0.00;0.62;0.00;0.00;0.62;2.70;2.10;;;20.60;21.00;;;;;;2272430;61;20358;-61
2023/03/03 10:00:16;0.00;0.00;0.62;0.00;0.00;0.62;3.03;2.30;;;20.60;21.00;;;;;;2271530;61;20914;-63
2023/03/03 10:03:31;0.00;0.00;0.62;0.00;0.00;0.62;2.60;2.03;;;20.60;21.00;;;;;;2272260;61;20436;-62
2023/03/03 10:06:27;0.00;0.00;0.62;0.00;0.00;0.62;2.50;1.70;;;20.60;21.00;;;;;;2271964;61;20677;-66
2023/03/03 10:09:52;0.00;0.00;0.62;0.00;0.00;0.62;3.13;2.07;;;20.60;21.00;;;;;;2271936;61;20366;-57
2023/03/03 10:12:39;0.00;0.00;0.62;0.00;0.00;0.62;2.37;1.90;;;20.60;21.00;;;;;;2276331;55;20881;31
2023/03/03 10:15:39;0.00;0.00;0.62;0.00;0.00;0.62;2.70;1.93;;;20.60;21.00;;;;;;2264666;61;20437;-64
2023/03/03 10:18:32;0.00;0.00;0.62;0.00;0.00;0.62;2.80;1.80;;;20.60;21.00;;;;;;2264406;61;20371;-62
2023/03/03 10:21:26;0.00;0.00;0.62;0.00;0.00;0.62;3.10;2.40;;;20.60;21.10;;;;;;2263624;61;20950;-64
2023/03/03 10:24:25;0.00;0.00;0.62;0.00;0.00;0.62;3.17;2.30;;;20.60;21.10;;;;;;2264124;61;20438;-59
2023/03/03 10:27:31;0.00;0.00;0.62;0.00;0.00;0.62;2.47;1.90;;;20.60;21.00;;;;;;2264298;61;20360;-61
2023/03/03 10:30:27;0.00;0.00;0.62;0.00;0.00;0.62;2.53;2.07;;;20.60;21.60;;;;;;2262698;61;20359;-60
2023/03/03 10:33:20;0.00;0.00;0.62;0.00;0.00;0.62;3.20;2.30;;;20.60;21.10;;;;;;2264062;61;20380;-63
2023/03/03 10:36:45;0.00;0.00;0.62;0.00;0.00;0.62;2.70;2.20;;;20.60;21.10;;;;;;2263874;61;20355;-62
2023/03/03 10:39:53;0.00;0.00;0.62;0.00;0.00;0.62;2.93;2.40;;;20.60;21.10;;;;;;2264483;61;20392;-64
2023/03/03 10:42:54;0.00;0.00;0.62;0.00;0.00;0.62;2.70;2.27;;;20.60;21.10;;;;;;2264704;61;20948;-65
2023/03/03 10:46:25;0.00;0.00;0.62;0.00;0.00;0.62;3.30;2.60;;;20.60;21.60;;;;;;2264391;61;20360;-62
2023/03/03 10:49:24;0.00;0.00;0.62;0.00;0.00;0.62;3.40;2.73;;;20.60;21.10;;;;;;2264427;61;20789;-61
2023/03/03 10:52:29;0.00;0.00;0.62;0.00;0.00;0.62;2.27;2.07;;;20.60;21.10;;;;;;2263850;61;20348;-64
2023/03/03 10:55:36;0.00;0.00;0.62;0.00;0.00;0.62;2.40;2.10;;;20.60;21.10;;;;;;2264876;61;20597;-57
2023/03/03 10:58:51;0.00;0.00;0.62;0.00;0.00;0.62;2.92;2.40;;;20.60;21.10;;;;;;2263759;61;20422;-60
2023/03/03 11:01:48;0.00;0.00;0.62;0.00;0.00;0.62;3.03;2.33;;;20.50;21.20;;;;;;2265109;61;20256;-64
2023/03/03 11:05:14;0.00;0.00;0.62;0.00;0.00;0.62;3.20;2.47;;;20.60;21.10;;;;;;2264550;61;20387;-59
2023/03/03 11:08:07;0.00;0.00;0.62;0.00;0.00;0.62;2.80;2.20;;;20.60;21.00;;;;;;2264860;61;20407;-62
2023/03/03 11:11:13;0.00;0.00;0.62;0.00;0.00;0.62;3.00;2.00;;;20.60;21.00;;;;;;2264531;61;20467;-59
2023/03/03 11:14:08;0.00;0.00;0.62;0.00;0.00;0.62;2.60;2.13;;;20.60;21.10;;;;;;2292674;39;20464;-59
2023/03/03 11:17:00;0.00;0.00;0.62;0.00;0.00;0.62;2.67;2.30;;;20.60;21.00;;;;;;2272867;61;20359;-60